createdAt,value
2018-11-22T00:00:42.400Z,101603.97
2018-11-22T00:01:47.651Z,101602.19
2018-11-22T00:02:54.542Z,101602.13
2018-11-22T00:03:59.902Z,101597.77
2018-11-22T00:05:05.731Z,101599.78
2018-11-22T00:06:11.110Z,101602.33
2018-11-22T00:07:16.576Z,101600.48
2018-11-22T00:08:22.711Z,101600.48
2018-11-22T00:09:28.200Z,101605.20
2018-11-22T00:10:34.267Z,101602.66
2018-11-22T00:11:39.983Z,101603.48
2018-11-22T00:12:45.501Z,101605.30
2018-11-22T00:13:50.993Z,101598.77
2018-11-22T00:14:56.276Z,101600.02
2018-11-22T00:16:01.946Z,101599.16
2018-11-22T00:17:07.572Z,101600.02
2018-11-22T00:18:12.812Z,101598.30
2018-11-22T00:19:18.211Z,101595.20
2018-11-22T00:20:24.457Z,101600.84
2018-11-22T00:21:30.604Z,101601.70
2018-11-22T00:22:36.007Z,101600.84
2018-11-22T00:23:42.349Z,101599.52
2018-11-22T00:24:48.025Z,101596.88
2018-11-22T00:25:53.380Z,101603.88
2018-11-22T00:26:59.775Z,101593.32
2018-11-22T00:28:05.265Z,101596.72
2018-11-22T00:29:10.671Z,101597.11
2018-11-22T00:30:20.994Z,101602.39
2018-11-22T00:31:26.362Z,101594.47
2018-11-22T00:32:31.624Z,101598.36
2018-11-22T00:33:37.021Z,101596.09
2018-11-22T00:34:42.746Z,101602.23
2018-11-22T00:35:48.535Z,101594.70
2018-11-22T00:36:53.877Z,101597.73
2018-11-22T00:37:59.478Z,101597.73
2018-11-22T00:39:07.739Z,101593.77
2018-11-22T00:40:18.441Z,101599.98
2018-11-22T00:41:23.775Z,101598.66
2018-11-22T00:42:29.166Z,101600.55
2018-11-22T00:43:34.658Z,101604.50
2018-11-22T00:44:39.949Z,101598.83
2018-11-22T00:45:46.229Z,101597.05
2018-11-22T00:46:51.542Z,101599.69
2018-11-22T00:47:57.051Z,101604.01
2018-11-22T00:49:02.424Z,101608.83
2018-11-22T00:50:09.259Z,101607.14
2018-11-22T00:51:17.599Z,101600.14
2018-11-22T00:52:26.504Z,101607.67
2018-11-22T00:53:31.835Z,101606.81
2018-11-22T00:54:37.281Z,101605.20
2018-11-22T00:55:42.488Z,101607.38
2018-11-22T00:56:48.162Z,101608.23
2018-11-22T00:57:54.501Z,101612.09
2018-11-22T00:59:02.678Z,101608.98
2018-11-22T01:00:13.122Z,101615.12
2018-11-22T01:01:18.368Z,101612.03
2018-11-22T01:02:23.730Z,101612.32
2018-11-22T01:03:29.021Z,101616.67
2018-11-22T01:04:34.364Z,101616.22
2018-11-22T01:05:39.719Z,101612.25
2018-11-22T01:06:46.421Z,101616.22
2018-11-22T01:07:51.799Z,101612.25
2018-11-22T01:08:57.188Z,101613.08
2018-11-22T01:10:02.556Z,101613.18
2018-11-22T01:11:08.082Z,101612.72
2018-11-22T01:12:13.396Z,101616.28
2018-11-22T01:13:18.798Z,101612.72
2018-11-22T01:14:24.203Z,101613.64
2018-11-22T01:15:29.651Z,101609.22
2018-11-22T01:16:35.017Z,101614.04
2018-11-22T01:17:40.225Z,101609.22
2018-11-22T01:18:45.618Z,101611.40
2018-11-22T01:19:51.035Z,101606.02
2018-11-22T01:20:56.385Z,101606.02
2018-11-22T01:22:01.986Z,101606.81
2018-11-22T01:23:07.419Z,101602.45
2018-11-22T01:24:12.687Z,101602.45
2018-11-22T01:25:19.864Z,101596.71
2018-11-22T01:26:25.250Z,101600.21
2018-11-22T01:27:30.562Z,101598.42
2018-11-22T01:28:36.058Z,101598.42
2018-11-22T01:29:41.782Z,101597.93
2018-11-22T01:30:47.078Z,101599.64
2018-11-22T01:31:52.323Z,101600.04
2018-11-22T01:32:58.335Z,101598.79
2018-11-22T01:34:03.576Z,101598.33
2018-11-22T01:35:09.972Z,101600.97
2018-11-22T01:36:15.578Z,101598.79
2018-11-22T01:37:21.094Z,101598.79
2018-11-22T01:38:26.398Z,101601.43
2018-11-22T01:39:31.695Z,101595.69
2018-11-22T01:40:37.017Z,101597.01
2018-11-22T01:41:42.423Z,101595.62
2018-11-22T01:42:48.817Z,101597.41
2018-11-22T01:43:54.089Z,101600.50
2018-11-22T01:45:00.846Z,101599.19
2018-11-22T01:46:06.560Z,101598.33
2018-11-22T01:47:12.042Z,101592.19
2018-11-22T01:48:17.669Z,101594.77
2018-11-22T01:49:23.521Z,101594.37
2018-11-22T01:50:28.987Z,101591.73
2018-11-22T01:51:34.576Z,101593.44
2018-11-22T01:52:40.845Z,101592.13
2018-11-22T01:53:46.198Z,101588.16
2018-11-22T01:54:51.620Z,101590.34
2018-11-22T01:55:57.017Z,101596.45
2018-11-22T01:57:02.495Z,101592.13
2018-11-22T01:58:07.815Z,101584.56
2018-11-22T01:59:13.751Z,101588.52
2018-11-22T02:00:21.910Z,101589.48
2018-11-22T02:01:27.867Z,101584.56
2018-11-22T02:02:33.368Z,101581.46
2018-11-22T02:03:38.977Z,101585.89
2018-11-22T02:04:44.338Z,101587.59
2018-11-22T02:05:49.938Z,101586.73
2018-11-22T02:06:55.247Z,101584.10
2018-11-22T02:08:00.649Z,101591.56
2018-11-22T02:09:09.016Z,101584.95
2018-11-22T02:10:15.496Z,101584.10
2018-11-22T02:11:20.885Z,101575.33
2018-11-22T02:12:26.562Z,101581.46
2018-11-22T02:13:31.801Z,101590.34
2018-11-22T02:14:37.115Z,101585.52
2018-11-22T02:15:42.723Z,101576.28
2018-11-22T02:16:48.117Z,101588.52
2018-11-22T02:17:53.389Z,101582.42
2018-11-22T02:18:58.869Z,101581.10
2018-11-22T02:20:04.548Z,101581.46
2018-11-22T02:21:09.979Z,101584.10
2018-11-22T02:22:16.108Z,101581.79
2018-11-22T02:23:21.674Z,101582.25
2018-11-22T02:24:27.189Z,101583.11
2018-11-22T02:25:32.432Z,101586.58
2018-11-22T02:26:38.948Z,101585.65
2018-11-22T02:27:44.485Z,101583.11
2018-11-22T02:28:50.203Z,101586.58
2018-11-22T02:29:55.638Z,101588.29
2018-11-22T02:31:01.254Z,101579.52
2018-11-22T02:32:07.098Z,101583.47
2018-11-22T02:33:14.970Z,101587.36
2018-11-22T02:34:20.439Z,101587.36
2018-11-22T02:35:26.377Z,101585.19
2018-11-22T02:36:31.831Z,101589.15
2018-11-22T02:37:37.541Z,101584.79
2018-11-22T02:38:44.350Z,101589.70
2018-11-22T02:39:49.883Z,101584.33
2018-11-22T02:40:55.319Z,101583.94
2018-11-22T02:42:00.683Z,101585.65
2018-11-22T02:43:10.275Z,101584.79
2018-11-22T02:44:18.851Z,101581.69
2018-11-22T02:45:25.997Z,101582.15
2018-11-22T02:46:31.586Z,101575.55
2018-11-22T02:47:38.414Z,101576.51
2018-11-22T02:48:43.041Z,101579.97
2018-11-22T02:49:48.306Z,101582.71
2018-11-22T02:50:57.103Z,101579.67
2018-11-22T02:52:02.531Z,101577.50
2018-11-22T02:53:08.103Z,101581.92
2018-11-22T02:54:13.420Z,101584.20
2018-11-22T02:55:18.681Z,101581.56
2018-11-22T02:56:23.993Z,101582.31
2018-11-22T02:57:29.436Z,101581.00
2018-11-22T02:58:35.121Z,101588.39
2018-11-22T02:59:40.451Z,101585.25
2018-11-22T03:00:46.805Z,101581.30
2018-11-22T03:01:52.153Z,101579.15
2018-11-22T03:02:58.273Z,101581.23
2018-11-22T03:04:03.697Z,101585.19
2018-11-22T03:05:09.024Z,101584.27
2018-11-22T03:06:14.550Z,101585.58
2018-11-22T03:07:19.856Z,101581.52
2018-11-22T03:08:25.197Z,101581.52
2018-11-22T03:09:30.543Z,101581.52
2018-11-22T03:10:35.947Z,101596.90
2018-11-22T03:11:41.925Z,101587.66
2018-11-22T03:12:48.253Z,101594.26
2018-11-22T03:13:53.595Z,101588.58
2018-11-22T03:14:59.797Z,101586.34
2018-11-22T03:16:05.388Z,101585.94
2018-11-22T03:17:11.618Z,101585.02
2018-11-22T03:18:17.453Z,101588.05
2018-11-22T03:19:22.812Z,101588.05
2018-11-22T03:20:28.323Z,101583.23
2018-11-22T03:21:33.827Z,101582.77
2018-11-22T03:22:39.962Z,101589.37
2018-11-22T03:23:45.196Z,101584.45
2018-11-22T03:24:50.507Z,101580.13
2018-11-22T03:25:55.924Z,101588.81
2018-11-22T03:27:01.280Z,101586.63
2018-11-22T03:28:06.751Z,101584.45
2018-11-22T03:29:12.013Z,101585.77
2018-11-22T03:30:18.563Z,101579.67
2018-11-22T03:31:25.100Z,101577.39
2018-11-22T03:32:30.422Z,101586.17
2018-11-22T03:33:35.691Z,101582.59
2018-11-22T03:34:40.963Z,101588.28
2018-11-22T03:35:46.299Z,101588.67
2018-11-22T03:36:51.625Z,101585.17
2018-11-22T03:37:57.242Z,101582.53
2018-11-22T03:39:03.328Z,101581.67
2018-11-22T03:40:10.914Z,101583.00
2018-11-22T03:41:16.430Z,101578.64
2018-11-22T03:42:21.947Z,101583.92
2018-11-22T03:43:27.343Z,101579.95
2018-11-22T03:44:32.549Z,101578.64
2018-11-22T03:45:37.884Z,101577.31
2018-11-22T03:46:43.140Z,101579.95
2018-11-22T03:47:48.477Z,101579.95
2018-11-22T03:48:54.218Z,101583.53
2018-11-22T03:50:00.413Z,101580.49
2018-11-22T03:51:06.151Z,101580.98
2018-11-22T03:52:11.590Z,101580.13
2018-11-22T03:53:17.337Z,101585.02
2018-11-22T03:54:22.652Z,101585.02
2018-11-22T03:55:28.069Z,101576.70
2018-11-22T03:56:33.451Z,101579.34
2018-11-22T03:57:39.336Z,101577.16
2018-11-22T03:58:44.735Z,101572.73
2018-11-22T03:59:50.145Z,101568.42
2018-11-22T04:00:55.535Z,101575.02
2018-11-22T04:02:03.496Z,101577.16
2018-11-22T04:03:08.751Z,101578.59
2018-11-22T04:04:14.391Z,101576.41
2018-11-22T04:05:21.258Z,101571.69
2018-11-22T04:06:26.705Z,101574.00
2018-11-22T04:07:31.960Z,101571.93
2018-11-22T04:08:37.447Z,101575.03
2018-11-22T04:09:42.923Z,101571.17
2018-11-22T04:10:48.317Z,101571.63
2018-11-22T04:11:53.645Z,101567.28
2018-11-22T04:12:59.083Z,101570.02
2018-11-22T04:14:04.568Z,101573.59
2018-11-22T04:15:11.093Z,101575.47
2018-11-22T04:16:17.028Z,101569.86
2018-11-22T04:17:22.432Z,101582.13
2018-11-22T04:18:28.140Z,101577.31
2018-11-22T04:19:33.401Z,101577.78
2018-11-22T04:20:38.745Z,101576.92
2018-11-22T04:21:46.096Z,101577.02
2018-11-22T04:22:51.664Z,101576.16
2018-11-22T04:23:56.906Z,101570.98
2018-11-22T04:25:02.164Z,101574.45
2018-11-22T04:26:07.689Z,101579.83
2018-11-22T04:27:13.011Z,101575.41
2018-11-22T04:28:18.363Z,101573.63
2018-11-22T04:29:23.745Z,101574.55
2018-11-22T04:30:33.549Z,101571.91
2018-11-22T04:31:38.785Z,101581.61
2018-11-22T04:32:45.335Z,101572.94
2018-11-22T04:33:50.618Z,101574.78
2018-11-22T04:34:56.144Z,101574.88
2018-11-22T04:36:01.376Z,101579.30
2018-11-22T04:37:07.633Z,101574.48
2018-11-22T04:38:12.863Z,101573.56
2018-11-22T04:39:18.375Z,101572.23
2018-11-22T04:40:24.924Z,101574.02
2018-11-22T04:41:30.272Z,101572.70
2018-11-22T04:42:35.637Z,101573.09
2018-11-22T04:43:40.974Z,101579.70
2018-11-22T04:44:46.376Z,101586.30
2018-11-22T04:45:51.694Z,101568.74
2018-11-22T04:46:57.408Z,101574.02
2018-11-22T04:48:04.617Z,101574.55
2018-11-22T04:49:09.879Z,101575.87
2018-11-22T04:50:16.677Z,101572.41
2018-11-22T04:51:22.391Z,101572.87
2018-11-22T04:52:27.859Z,101575.11
2018-11-22T04:53:33.322Z,101572.47
2018-11-22T04:54:38.593Z,101570.30
2018-11-22T04:55:43.861Z,101569.37
2018-11-22T04:56:49.273Z,101572.94
2018-11-22T04:57:57.975Z,101575.11
2018-11-22T04:58:59.886Z,101569.83
2018-11-22T05:00:08.092Z,101567.20
2018-11-22T05:01:13.973Z,101568.12
2018-11-22T05:02:19.744Z,101565.97
2018-11-22T05:03:25.048Z,101567.30
2018-11-22T05:04:30.768Z,101570.76
2018-11-22T05:05:36.289Z,101569.08
2018-11-22T05:06:41.567Z,101568.12
2018-11-22T05:07:46.969Z,101566.80
2018-11-22T05:08:52.497Z,101566.34
2018-11-22T05:09:58.084Z,101563.70
2018-11-22T05:11:03.529Z,101572.41
2018-11-22T05:12:08.932Z,101568.91
2018-11-22T05:13:14.328Z,101564.55
2018-11-22T05:14:19.865Z,101565.31
2018-11-22T05:15:26.881Z,101566.17
2018-11-22T05:16:32.481Z,101565.70
2018-11-22T05:17:38.211Z,101557.33
2018-11-22T05:18:43.614Z,101563.47
2018-11-22T05:19:48.908Z,101563.86
2018-11-22T05:20:54.274Z,101558.58
2018-11-22T05:21:59.604Z,101561.58
2018-11-22T05:23:04.883Z,101561.98
2018-11-22T05:24:10.215Z,101564.16
2018-11-22T05:25:15.698Z,101556.70
2018-11-22T05:26:21.101Z,101560.66
2018-11-22T05:27:26.784Z,101559.73
2018-11-22T05:28:32.208Z,101559.73
2018-11-22T05:29:38.629Z,101566.23
2018-11-22T05:30:44.389Z,101558.78
2018-11-22T05:31:49.632Z,101561.81
2018-11-22T05:32:55.286Z,101561.81
2018-11-22T05:34:00.623Z,101562.20
2018-11-22T05:35:08.893Z,101554.29
2018-11-22T05:36:14.276Z,101555.97
2018-11-22T05:37:20.779Z,101551.55
2018-11-22T05:38:26.400Z,101559.01
2018-11-22T05:39:31.898Z,101562.11
2018-11-22T05:40:37.378Z,101554.12
2018-11-22T05:41:43.933Z,101553.27
2018-11-22T05:42:48.035Z,101559.41
2018-11-22T05:43:53.336Z,101560.33
2018-11-22T05:44:58.659Z,101559.41
2018-11-22T05:46:03.990Z,101551.48
2018-11-22T05:47:09.468Z,101556.77
2018-11-22T05:48:14.743Z,101557.62
2018-11-22T05:49:20.045Z,101557.12
2018-11-22T05:50:26.834Z,101561.88
2018-11-22T05:51:33.478Z,101565.27
2018-11-22T05:52:38.950Z,101559.99
2018-11-22T05:53:44.466Z,101556.98
2018-11-22T05:54:50.040Z,101558.31
2018-11-22T05:55:55.338Z,101558.67
2018-11-22T05:57:00.650Z,101557.81
2018-11-22T05:58:06.017Z,101557.91
2018-11-22T05:59:14.066Z,101560.16
2018-11-22T06:00:21.538Z,101555.80
2018-11-22T06:01:27.295Z,101559.41
2018-11-22T06:02:32.661Z,101551.48
2018-11-22T06:03:38.120Z,101558.55
2018-11-22T06:04:43.427Z,101556.37
2018-11-22T06:05:48.784Z,101560.79
2018-11-22T06:06:55.040Z,101560.79
2018-11-22T06:08:01.354Z,101551.19
2018-11-22T06:09:09.990Z,101559.11
2018-11-22T06:10:22.907Z,101555.15
2018-11-22T06:11:28.179Z,101557.39
2018-11-22T06:12:33.523Z,101559.56
2018-11-22T06:13:38.890Z,101560.03
2018-11-22T06:14:44.671Z,101559.17
2018-11-22T06:15:50.083Z,101564.84
2018-11-22T06:16:55.509Z,101563.98
2018-11-22T06:18:01.445Z,101564.84
2018-11-22T06:19:06.986Z,101561.25
2018-11-22T06:20:14.884Z,101557.30
2018-11-22T06:21:20.117Z,101555.97
2018-11-22T06:22:25.906Z,101559.01
2018-11-22T06:23:31.573Z,101562.04
2018-11-22T06:24:39.916Z,101558.44
2018-11-22T06:25:45.174Z,101558.44
2018-11-22T06:26:51.678Z,101562.04
2018-11-22T06:27:57.739Z,101561.58
2018-11-22T06:29:02.981Z,101568.64
2018-11-22T06:30:19.715Z,101559.93
2018-11-22T06:31:25.115Z,101561.34
2018-11-22T06:32:30.703Z,101571.91
2018-11-22T06:33:37.436Z,101571.97
2018-11-22T06:34:42.841Z,101566.70
2018-11-22T06:35:48.334Z,101569.44
2018-11-22T06:36:53.754Z,101569.80
2018-11-22T06:37:59.319Z,101562.37
2018-11-22T06:39:05.657Z,101573.69
2018-11-22T06:40:13.348Z,101571.91
2018-11-22T06:41:18.908Z,101574.16
2018-11-22T06:42:24.211Z,101576.39
2018-11-22T06:43:29.446Z,101579.89
2018-11-22T06:44:35.008Z,101575.08
2018-11-22T06:45:40.363Z,101575.01
2018-11-22T06:46:45.755Z,101572.83
2018-11-22T06:47:51.672Z,101574.55
2018-11-22T06:48:57.225Z,101574.55
2018-11-22T06:50:02.699Z,101575.30
2018-11-22T06:51:08.188Z,101579.20
2018-11-22T06:52:13.619Z,101575.60
2018-11-22T06:53:19.074Z,101573.82
2018-11-22T06:54:24.488Z,101576.00
2018-11-22T06:55:31.642Z,101573.36
2018-11-22T06:56:36.898Z,101579.03
2018-11-22T06:57:43.239Z,101575.83
2018-11-22T06:58:48.574Z,101582.42
2018-11-22T06:59:53.853Z,101575.83
2018-11-22T07:00:59.765Z,101579.33
2018-11-22T07:02:05.006Z,101577.15
2018-11-22T07:03:10.858Z,101571.11
2018-11-22T07:04:16.579Z,101577.31
2018-11-22T07:05:23.103Z,101573.29
2018-11-22T07:06:28.712Z,101577.25
2018-11-22T07:07:34.957Z,101575.47
2018-11-22T07:08:40.304Z,101582.53
2018-11-22T07:09:45.759Z,101582.53
2018-11-22T07:10:53.625Z,101577.25
2018-11-22T07:11:59.209Z,101580.25
2018-11-22T07:13:04.816Z,101581.50
2018-11-22T07:14:10.264Z,101578.00
2018-11-22T07:15:16.899Z,101577.15
2018-11-22T07:16:22.339Z,101578.86
2018-11-22T07:17:27.723Z,101581.04
2018-11-22T07:18:33.160Z,101573.98
2018-11-22T07:19:38.763Z,101580.41
2018-11-22T07:20:44.295Z,101579.09
2018-11-22T07:21:49.745Z,101574.73
2018-11-22T07:22:57.750Z,101582.95
2018-11-22T07:24:03.051Z,101582.42
2018-11-22T07:25:12.130Z,101587.70
2018-11-22T07:26:17.601Z,101584.03
2018-11-22T07:27:23.047Z,101585.75
2018-11-22T07:28:28.472Z,101581.79
2018-11-22T07:29:33.726Z,101589.21
2018-11-22T07:30:42.374Z,101583.87
2018-11-22T07:31:44.969Z,101584.62
2018-11-22T07:32:50.686Z,101587.66
2018-11-22T07:33:55.954Z,101579.73
2018-11-22T07:35:01.519Z,101585.02
2018-11-22T07:36:07.120Z,101582.77
2018-11-22T07:37:12.514Z,101581.81
2018-11-22T07:38:17.933Z,101582.20
2018-11-22T07:39:23.373Z,101581.67
2018-11-22T07:40:30.070Z,101589.59
2018-11-22T07:41:35.307Z,101581.21
2018-11-22T07:42:40.895Z,101586.03
2018-11-22T07:43:46.357Z,101585.10
2018-11-22T07:44:51.680Z,101586.42
2018-11-22T07:45:56.925Z,101584.25
2018-11-22T07:47:02.441Z,101584.70
2018-11-22T07:48:08.409Z,101588.28
2018-11-22T07:49:13.657Z,101580.81
2018-11-22T07:50:21.432Z,101576.92
2018-11-22T07:51:26.872Z,101576.39
2018-11-22T07:52:32.062Z,101580.75
2018-11-22T07:53:37.740Z,101575.93
2018-11-22T07:54:42.968Z,101582.92
2018-11-22T07:55:48.529Z,101581.67
2018-11-22T07:56:53.859Z,101586.03
2018-11-22T07:57:59.330Z,101584.70
2018-11-22T07:59:04.680Z,101586.49
2018-11-22T08:00:15.681Z,101581.67
2018-11-22T08:01:21.031Z,101580.36
2018-11-22T08:02:26.368Z,101581.67
2018-11-22T08:03:31.729Z,101589.13
2018-11-22T08:04:36.961Z,101590.38
2018-11-22T08:05:43.662Z,101593.02
2018-11-22T08:06:49.162Z,101595.10
2018-11-22T08:07:54.729Z,101585.86
2018-11-22T08:09:00.157Z,101592.86
2018-11-22T08:10:08.002Z,101594.17
2018-11-22T08:11:13.387Z,101592.46
2018-11-22T08:12:25.870Z,101591.93
2018-11-22T08:13:24.186Z,101590.11
2018-11-22T08:14:29.699Z,101594.08
2018-11-22T08:15:36.686Z,101594.08
2018-11-22T08:16:42.040Z,101591.93
2018-11-22T08:17:47.730Z,101595.39
2018-11-22T08:18:53.175Z,101589.19
2018-11-22T08:19:58.506Z,101594.77
2018-11-22T08:21:04.903Z,101589.98
2018-11-22T08:22:09.945Z,101594.77
2018-11-22T08:23:15.204Z,101598.72
2018-11-22T08:24:20.568Z,101595.16
2018-11-22T08:25:26.844Z,101594.52
2018-11-22T08:26:32.102Z,101590.09
2018-11-22T08:27:37.554Z,101593.49
2018-11-22T08:28:43.248Z,101588.14
2018-11-22T08:29:48.689Z,101593.78
2018-11-22T08:30:54.088Z,101587.67
2018-11-22T08:32:01.688Z,101589.00
2018-11-22T08:33:07.177Z,101584.64
2018-11-22T08:34:12.767Z,101586.89
2018-11-22T08:35:18.633Z,101589.92
2018-11-22T08:36:23.949Z,101589.00
2018-11-22T08:37:29.278Z,101589.75
2018-11-22T08:38:34.991Z,101592.33
2018-11-22T08:39:40.678Z,101591.83
2018-11-22T08:40:45.883Z,101588.26
2018-11-22T08:41:51.248Z,101588.66
2018-11-22T08:42:56.814Z,101589.87
2018-11-22T08:44:02.074Z,101591.52
2018-11-22T08:45:08.549Z,101591.02
2018-11-22T08:46:13.786Z,101596.63
2018-11-22T08:47:19.197Z,101595.13
2018-11-22T08:48:24.564Z,101593.31
2018-11-22T08:49:29.843Z,101592.48
2018-11-22T08:50:35.384Z,101598.13
2018-11-22T08:51:41.302Z,101597.50
2018-11-22T08:52:47.967Z,101594.00
2018-11-22T08:53:53.301Z,101601.86
2018-11-22T08:54:58.625Z,101594.39
2018-11-22T08:56:03.945Z,101599.28
2018-11-22T08:57:09.258Z,101606.67
2018-11-22T08:58:14.527Z,101598.28
2018-11-22T08:59:19.817Z,101598.75
2018-11-22T09:00:26.655Z,101598.64
2018-11-22T09:01:32.172Z,101600.36
2018-11-22T09:02:37.594Z,101600.28
2018-11-22T09:03:42.936Z,101599.61
2018-11-22T09:04:48.319Z,101603.90
2018-11-22T09:05:53.791Z,101588.80
2018-11-22T09:06:59.417Z,101595.23
2018-11-22T09:08:04.895Z,101591.09
2018-11-22T09:09:11.797Z,101597.62
2018-11-22T09:10:18.765Z,101590.37
2018-11-22T09:11:24.049Z,101591.12
2018-11-22T09:12:29.379Z,101589.73
2018-11-22T09:13:34.679Z,101601.45
2018-11-22T09:14:40.073Z,101597.84
2018-11-22T09:15:45.443Z,101582.83
2018-11-22T09:16:50.693Z,101592.19
2018-11-22T09:17:55.891Z,101590.95
2018-11-22T09:19:01.343Z,101597.95
2018-11-22T09:20:08.269Z,101596.63
2018-11-22T09:21:13.524Z,101597.66
2018-11-22T09:22:19.004Z,101600.38
2018-11-22T09:23:24.647Z,101601.70
2018-11-22T09:24:30.063Z,101598.30
2018-11-22T09:25:36.646Z,101597.52
2018-11-22T09:26:42.252Z,101595.84
2018-11-22T09:27:47.757Z,101597.62
2018-11-22T09:28:53.399Z,101601.30
2018-11-22T09:29:58.861Z,101607.52
2018-11-22T09:31:04.324Z,101604.08
2018-11-22T09:32:09.693Z,101608.44
2018-11-22T09:33:14.974Z,101606.73
2018-11-22T09:34:20.453Z,101600.52
2018-11-22T09:35:27.173Z,101611.48
2018-11-22T09:36:32.561Z,101612.23
2018-11-22T09:37:38.150Z,101607.73
2018-11-22T09:38:43.363Z,101612.45
2018-11-22T09:39:49.602Z,101612.84
2018-11-22T09:40:54.978Z,101618.88
2018-11-22T09:42:01.353Z,101612.56
2018-11-22T09:43:06.989Z,101614.66
2018-11-22T09:44:12.700Z,101618.91
2018-11-22T09:45:24.189Z,101612.31
2018-11-22T09:46:29.614Z,101619.59
2018-11-22T09:47:35.320Z,101620.45
2018-11-22T09:48:40.895Z,101617.81
2018-11-22T09:49:46.165Z,101623.38
2018-11-22T09:50:52.463Z,101625.92
2018-11-22T09:51:58.247Z,101617.98
2018-11-22T09:53:05.174Z,101615.73
2018-11-22T09:54:10.805Z,101618.38
2018-11-22T09:55:34.537Z,101614.42
2018-11-22T09:56:58.566Z,101608.27
2018-11-22T09:58:04.204Z,101618.48
2018-11-22T09:59:09.525Z,101615.91
2018-11-22T10:00:17.685Z,101607.13
2018-11-22T10:01:23.058Z,101613.27
2018-11-22T10:02:28.522Z,101603.95
2018-11-22T10:03:33.879Z,101608.66
2018-11-22T10:04:39.349Z,101605.95
2018-11-22T10:05:44.762Z,101609.41
2018-11-22T10:06:51.473Z,101604.98
2018-11-22T10:07:56.761Z,101602.34
2018-11-22T10:09:21.060Z,101605.38
2018-11-22T10:10:41.132Z,101612.73
2018-11-22T10:11:47.260Z,101613.59
2018-11-22T10:12:52.654Z,101610.09
2018-11-22T10:13:58.008Z,101617.66
2018-11-22T10:15:03.410Z,101610.09
2018-11-22T10:16:08.867Z,101613.70
2018-11-22T10:17:14.271Z,101613.13
2018-11-22T10:18:19.637Z,101611.80
2018-11-22T10:19:25.273Z,101613.05
2018-11-22T10:20:30.788Z,101611.80
2018-11-22T10:21:36.217Z,101614.84
2018-11-22T10:22:43.967Z,101618.02
2018-11-22T10:23:49.364Z,101621.13
2018-11-22T10:24:54.989Z,101621.63
2018-11-22T10:26:00.336Z,101617.27
2018-11-22T10:27:05.790Z,101626.53
2018-11-22T10:28:11.084Z,101616.41
2018-11-22T10:29:35.130Z,101618.77
2018-11-22T10:30:58.628Z,101620.09
2018-11-22T10:32:04.654Z,101622.92
2018-11-22T10:33:10.206Z,101622.13
2018-11-22T10:34:15.200Z,101626.09
2018-11-22T10:35:39.355Z,101621.38
2018-11-22T10:37:03.011Z,101620.63
2018-11-22T10:38:26.770Z,101623.45
2018-11-22T10:39:50.920Z,101618.62
2018-11-22T10:41:14.645Z,101617.77
2018-11-22T10:42:20.171Z,101618.62
2018-11-22T10:43:25.255Z,101616.34
2018-11-22T10:44:49.079Z,101623.34
2018-11-22T10:46:13.206Z,101622.88
2018-11-22T10:47:37.735Z,101620.80
2018-11-22T10:49:01.503Z,101618.98
2018-11-22T12:15:55.640Z,101569.70
2018-11-22T12:16:59.680Z,101571.88
2018-11-22T12:18:03.717Z,101570.94
2018-11-22T12:19:12.125Z,101568.77
2018-11-22T12:20:16.972Z,101570.94
2018-11-22T12:21:21.090Z,101574.41
2018-11-22T12:22:25.137Z,101576.23
2018-11-22T12:23:29.200Z,101564.87
2018-11-22T12:24:33.381Z,101567.12
2018-11-22T12:25:37.669Z,101571.09
2018-11-22T12:26:41.768Z,101567.70
2018-11-22T12:27:47.608Z,101560.70
2018-11-22T12:28:51.665Z,101555.91
2018-11-22T12:29:55.775Z,101562.14
2018-11-22T12:31:06.398Z,101562.52
2018-11-22T12:32:09.228Z,101562.52
2018-11-22T12:33:19.529Z,101560.81
2018-11-22T12:34:28.730Z,101562.02
2018-11-22T12:35:38.158Z,101559.77
2018-11-22T12:36:47.518Z,101553.89
2018-11-22T12:37:56.961Z,101557.31
2018-11-22T12:39:01.051Z,101557.70
2018-11-22T12:40:07.944Z,101555.41
2018-11-22T12:41:12.065Z,101550.23
2018-11-22T12:42:16.121Z,101556.00
2018-11-22T12:43:21.247Z,101555.06
2018-11-22T12:44:25.399Z,101554.95
2018-11-22T12:45:29.825Z,101560.44
2018-11-22T12:46:33.896Z,101559.78
2018-11-22T12:47:37.917Z,101562.78
2018-11-22T12:48:42.541Z,101557.33
2018-11-22T12:49:46.654Z,101560.91
2018-11-22T12:50:50.758Z,101556.94
2018-11-22T12:51:54.909Z,101558.73
2018-11-22T12:52:59.046Z,101556.94
2018-11-22T12:54:03.114Z,101560.52
2018-11-22T12:55:08.637Z,101556.16
2018-11-22T12:56:12.783Z,101559.59
2018-11-22T12:57:16.791Z,101554.68
2018-11-22T12:58:21.344Z,101557.33
2018-11-22T12:59:25.433Z,101558.66
2018-11-22T13:00:29.487Z,101554.57
2018-11-22T13:01:33.615Z,101554.10
2018-11-22T13:02:37.740Z,101553.16
2018-11-22T13:03:41.780Z,101555.81
2018-11-22T13:04:45.822Z,101546.55
2018-11-22T13:05:49.923Z,101549.66
2018-11-22T13:06:53.969Z,101544.83
2018-11-22T13:07:58.037Z,101553.16
2018-11-22T13:09:02.069Z,101557.14
2018-11-22T13:10:07.859Z,101545.58
2018-11-22T13:11:11.878Z,101546.55
2018-11-22T13:12:15.936Z,101548.69
2018-11-22T13:13:20.000Z,101552.20
2018-11-22T13:14:24.015Z,101544.64
2018-11-22T13:15:28.125Z,101547.20
2018-11-22T13:16:32.535Z,101548.03
2018-11-22T13:17:36.596Z,101549.35
2018-11-22T13:18:40.665Z,101549.35
2018-11-22T13:19:44.774Z,101539.73
2018-11-22T13:20:48.810Z,101548.53
2018-11-22T13:21:52.864Z,101546.35
2018-11-22T13:22:56.989Z,101540.08
2018-11-22T13:24:01.157Z,101540.94
2018-11-22T13:25:06.359Z,101539.15
2018-11-22T13:26:10.650Z,101538.77
2018-11-22T13:27:14.651Z,101539.15
2018-11-22T13:28:18.771Z,101536.11
2018-11-22T13:29:22.840Z,101535.17
2018-11-22T13:30:28.085Z,101538.68
2018-11-22T13:31:32.114Z,101536.89
2018-11-22T13:32:36.233Z,101536.03
2018-11-22T13:33:40.351Z,101539.62
2018-11-22T13:34:44.539Z,101538.87
2018-11-22T13:35:48.646Z,101534.63
2018-11-22T13:36:52.734Z,101539.92
2018-11-22T13:37:57.211Z,101532.53
2018-11-22T13:39:01.269Z,101536.50
2018-11-22T13:40:06.633Z,101532.53
2018-11-22T13:41:10.782Z,101534.82
2018-11-22T13:42:14.825Z,101537.47
2018-11-22T13:43:18.828Z,101532.53
2018-11-22T13:44:23.209Z,101534.82
2018-11-22T13:45:29.241Z,101541.25
2018-11-22T13:46:34.469Z,101532.92
2018-11-22T13:47:40.052Z,101531.98
2018-11-22T13:48:44.094Z,101533.66
2018-11-22T13:49:48.225Z,101537.63
2018-11-22T13:50:52.293Z,101534.52
2018-11-22T13:51:56.331Z,101534.13
2018-11-22T13:53:03.880Z,101534.91
2018-11-22T13:54:07.913Z,101534.44
2018-11-22T13:55:12.108Z,101539.73
2018-11-22T13:56:16.190Z,101540.94
2018-11-22T13:57:20.246Z,101537.44
2018-11-22T13:58:24.302Z,101545.77
2018-11-22T13:59:28.372Z,101543.98